sensor_id;sensor_type;location;lat;lon;timestamp;P1;durP1;ratioP1;P2;durP2;ratioP2
41233;SDS011;26968;42.686;23.352;2023-08-20T00:00:06;8.88;;;5.65;;
41233;SDS011;26968;42.686;23.352;2023-08-20T00:02:33;11.63;;;6.07;;
41233;SDS011;26968;42.686;23.352;2023-08-20T00:05:02;10.40;;;6.07;;
41233;SDS011;26968;42.686;23.352;2023-08-20T00:07:29;13.50;;;6.18;;
41233;SDS011;26968;42.686;23.352;2023-08-20T00:09:56;13.07;;;5.97;;
41233;SDS011;26968;42.686;23.352;2023-08-20T00:12:21;12.15;;;6.15;;
41233;SDS011;26968;42.686;23.352;2023-08-20T00:14:51;8.15;;;5.60;;
41233;SDS011;26968;42.686;23.352;2023-08-20T00:17:21;11.95;;;6.18;;
41233;SDS011;26968;42.686;23.352;2023-08-20T00:19:49;11.38;;;6.30;;
41233;SDS011;26968;42.686;23.352;2023-08-20T00:22:16;10.05;;;6.20;;
41233;SDS011;26968;42.686;23.352;2023-08-20T00:24:41;10.40;;;6.35;;
41233;SDS011;26968;42.686;23.352;2023-08-20T00:27:07;8.75;;;6.00;;
41233;SDS011;26968;42.686;23.352;2023-08-20T00:29:33;11.02;;;6.68;;
41233;SDS011;26968;42.686;23.352;2023-08-20T00:31:58;8.43;;;6.65;;
41233;SDS011;26968;42.686;23.352;2023-08-20T00:34:24;12.80;;;6.68;;
41233;SDS011;26968;42.686;23.352;2023-08-20T00:36:49;14.95;;;7.07;;
41233;SDS011;26968;42.686;23.352;2023-08-20T00:39:14;13.38;;;7.28;;
41233;SDS011;26968;42.686;23.352;2023-08-20T00:41:40;11.73;;;6.25;;
41233;SDS011;26968;42.686;23.352;2023-08-20T00:44:06;15.60;;;6.38;;
41233;SDS011;26968;42.686;23.352;2023-08-20T00:46:31;9.23;;;6.25;;
41233;SDS011;26968;42.686;23.352;2023-08-20T00:48:57;9.25;;;6.70;;
41233;SDS011;26968;42.686;23.352;2023-08-20T00:51:23;18.75;;;7.07;;
41233;SDS011;26968;42.686;23.352;2023-08-20T00:53:49;12.43;;;6.38;;
41233;SDS011;26968;42.686;23.352;2023-08-20T00:56:15;13.30;;;6.45;;
41233;SDS011;26968;42.686;23.352;2023-08-20T00:58:41;10.75;;;6.68;;
41233;SDS011;26968;42.686;23.352;2023-08-20T01:01:07;13.70;;;6.68;;
41233;SDS011;26968;42.686;23.352;2023-08-20T01:03:33;14.15;;;6.85;;
41233;SDS011;26968;42.686;23.352;2023-08-20T01:06:07;10.65;;;7.22;;
41233;SDS011;26968;42.686;23.352;2023-08-20T01:08:45;13.82;;;7.05;;
41233;SDS011;26968;42.686;23.352;2023-08-20T01:11:17;14.23;;;6.15;;
41233;SDS011;26968;42.686;23.352;2023-08-20T01:13:49;10.98;;;6.97;;
41233;SDS011;26968;42.686;23.352;2023-08-20T01:16:15;13.20;;;6.90;;
41233;SDS011;26968;42.686;23.352;2023-08-20T01:18:40;10.15;;;6.15;;
41233;SDS011;26968;42.686;23.352;2023-08-20T01:21:11;9.93;;;6.30;;
41233;SDS011;26968;42.686;23.352;2023-08-20T01:26:21;10.52;;;7.30;;
41233;SDS011;26968;42.686;23.352;2023-08-20T01:29:00;11.45;;;7.32;;
41233;SDS011;26968;42.686;23.352;2023-08-20T01:31:26;11.30;;;7.45;;
41233;SDS011;26968;42.686;23.352;2023-08-20T01:33:53;9.98;;;6.80;;
41233;SDS011;26968;42.686;23.352;2023-08-20T01:36:19;15.48;;;7.68;;
41233;SDS011;26968;42.686;23.352;2023-08-20T01:38:44;9.07;;;6.80;;
41233;SDS011;26968;42.686;23.352;2023-08-20T01:41:10;16.40;;;7.38;;
41233;SDS011;26968;42.686;23.352;2023-08-20T01:43:36;10.57;;;6.68;;
41233;SDS011;26968;42.686;23.352;2023-08-20T01:46:01;14.00;;;6.72;;
41233;SDS011;26968;42.686;23.352;2023-08-20T01:48:26;13.80;;;7.13;;
41233;SDS011;26968;42.686;23.352;2023-08-20T01:50:52;9.68;;;6.72;;
41233;SDS011;26968;42.686;23.352;2023-08-20T01:53:17;11.05;;;7.13;;
41233;SDS011;26968;42.686;23.352;2023-08-20T01:55:43;16.85;;;7.72;;
41233;SDS011;26968;42.686;23.352;2023-08-20T01:58:08;12.40;;;7.30;;
41233;SDS011;26968;42.686;23.352;2023-08-20T02:00:34;13.95;;;7.45;;
41233;SDS011;26968;42.686;23.352;2023-08-20T02:02:59;13.98;;;7.00;;
41233;SDS011;26968;42.686;23.352;2023-08-20T02:05:25;9.68;;;7.53;;
41233;SDS011;26968;42.686;23.352;2023-08-20T02:07:50;12.25;;;7.72;;
41233;SDS011;26968;42.686;23.352;2023-08-20T02:10:16;16.35;;;7.45;;
41233;SDS011;26968;42.686;23.352;2023-08-20T02:12:41;8.68;;;7.13;;
41233;SDS011;26968;42.686;23.352;2023-08-20T02:15:07;11.93;;;7.50;;
41233;SDS011;26968;42.686;23.352;2023-08-20T02:17:33;11.48;;;7.97;;
41233;SDS011;26968;42.686;23.352;2023-08-20T02:20:01;11.02;;;7.35;;
41233;SDS011;26968;42.686;23.352;2023-08-20T02:22:28;13.98;;;7.40;;
41233;SDS011;26968;42.686;23.352;2023-08-20T02:24:54;13.98;;;8.07;;
41233;SDS011;26968;42.686;23.352;2023-08-20T02:27:20;14.38;;;6.93;;
41233;SDS011;26968;42.686;23.352;2023-08-20T02:29:45;15.35;;;7.18;;
41233;SDS011;26968;42.686;23.352;2023-08-20T02:32:11;14.02;;;7.85;;
41233;SDS011;26968;42.686;23.352;2023-08-20T02:34:36;14.00;;;7.93;;
41233;SDS011;26968;42.686;23.352;2023-08-20T02:37:02;11.73;;;7.55;;
41233;SDS011;26968;42.686;23.352;2023-08-20T02:39:27;13.02;;;7.90;;
41233;SDS011;26968;42.686;23.352;2023-08-20T02:41:52;19.60;;;7.90;;
41233;SDS011;26968;42.686;23.352;2023-08-20T02:44:18;13.20;;;7.32;;
41233;SDS011;26968;42.686;23.352;2023-08-20T02:46:43;14.73;;;7.03;;
41233;SDS011;26968;42.686;23.352;2023-08-20T02:49:10;13.90;;;7.47;;
41233;SDS011;26968;42.686;23.352;2023-08-20T02:51:35;12.90;;;6.82;;
41233;SDS011;26968;42.686;23.352;2023-08-20T02:54:01;13.43;;;7.18;;
41233;SDS011;26968;42.686;23.352;2023-08-20T02:56:27;10.80;;;7.72;;
41233;SDS011;26968;42.686;23.352;2023-08-20T02:58:52;12.60;;;7.72;;
41233;SDS011;26968;42.686;23.352;2023-08-20T03:01:18;14.95;;;8.25;;
41233;SDS011;26968;42.686;23.352;2023-08-20T03:03:47;10.23;;;7.20;;
41233;SDS011;26968;42.686;23.352;2023-08-20T03:06:13;15.98;;;7.50;;
41233;SDS011;26968;42.686;23.352;2023-08-20T03:08:38;15.98;;;7.90;;
41233;SDS011;26968;42.686;23.352;2023-08-20T03:11:04;15.48;;;7.30;;
41233;SDS011;26968;42.686;23.352;2023-08-20T03:13:29;10.45;;;7.80;;
41233;SDS011;26968;42.686;23.352;2023-08-20T03:15:56;13.65;;;8.00;;
41233;SDS011;26968;42.686;23.352;2023-08-20T03:18:22;13.57;;;8.38;;
41233;SDS011;26968;42.686;23.352;2023-08-20T03:20:47;11.70;;;8.18;;
41233;SDS011;26968;42.686;23.352;2023-08-20T03:23:12;11.50;;;7.28;;
41233;SDS011;26968;42.686;23.352;2023-08-20T03:25:38;14.73;;;8.48;;
41233;SDS011;26968;42.686;23.352;2023-08-20T03:28:04;17.58;;;8.23;;
41233;SDS011;26968;42.686;23.352;2023-08-20T03:30:29;18.33;;;8.32;;
41233;SDS011;26968;42.686;23.352;2023-08-20T03:32:56;15.50;;;8.25;;
41233;SDS011;26968;42.686;23.352;2023-08-20T03:35:21;16.83;;;8.85;;
41233;SDS011;26968;42.686;23.352;2023-08-20T03:37:47;18.85;;;8.82;;
41233;SDS011;26968;42.686;23.352;2023-08-20T03:40:13;18.27;;;8.43;;
41233;SDS011;26968;42.686;23.352;2023-08-20T03:42:38;19.67;;;8.48;;
41233;SDS011;26968;42.686;23.352;2023-08-20T03:45:04;14.98;;;8.23;;
41233;SDS011;26968;42.686;23.352;2023-08-20T03:47:30;18.75;;;8.98;;
41233;SDS011;26968;42.686;23.352;2023-08-20T03:49:55;16.50;;;8.88;;
41233;SDS011;26968;42.686;23.352;2023-08-20T03:52:20;15.75;;;8.15;;
41233;SDS011;26968;42.686;23.352;2023-08-20T03:54:46;14.63;;;8.13;;
41233;SDS011;26968;42.686;23.352;2023-08-20T03:57:11;12.70;;;8.13;;
41233;SDS011;26968;42.686;23.352;2023-08-20T03:59:37;20.45;;;9.07;;
41233;SDS011;26968;42.686;23.352;2023-08-20T04:02:02;18.92;;;8.63;;
41233;SDS011;26968;42.686;23.352;2023-08-20T04:04:28;12.45;;;7.63;;
41233;SDS011;26968;42.686;23.352;2023-08-20T04:06:53;14.00;;;8.93;;
41233;SDS011;26968;42.686;23.352;2023-08-20T04:09:19;18.48;;;8.48;;
41233;SDS011;26968;42.686;23.352;2023-08-20T04:11:44;14.25;;;8.50;;
41233;SDS011;26968;42.686;23.352;2023-08-20T04:14:10;20.13;;;8.82;;
41233;SDS011;26968;42.686;23.352;2023-08-20T04:16:35;17.20;;;8.57;;
41233;SDS011;26968;42.686;23.352;2023-08-20T04:19:00;20.75;;;8.00;;
41233;SDS011;26968;42.686;23.352;2023-08-20T04:21:26;11.55;;;8.38;;
41233;SDS011;26968;42.686;23.352;2023-08-20T04:23:52;16.00;;;9.00;;
41233;SDS011;26968;42.686;23.352;2023-08-20T04:26:18;12.30;;;9.02;;
41233;SDS011;26968;42.686;23.352;2023-08-20T04:28:44;17.00;;;9.07;;
41233;SDS011;26968;42.686;23.352;2023-08-20T04:31:09;22.58;;;9.85;;
41233;SDS011;26968;42.686;23.352;2023-08-20T04:33:34;19.33;;;8.88;;
41233;SDS011;26968;42.686;23.352;2023-08-20T04:36:00;11.75;;;8.32;;
41233;SDS011;26968;42.686;23.352;2023-08-20T04:38:26;18.05;;;9.20;;
41233;SDS011;26968;42.686;23.352;2023-08-20T04:40:52;14.52;;;8.73;;
41233;SDS011;26968;42.686;23.352;2023-08-20T04:43:17;17.75;;;7.80;;
41233;SDS011;26968;42.686;23.352;2023-08-20T04:45:43;16.90;;;9.70;;
41233;SDS011;26968;42.686;23.352;2023-08-20T04:48:08;15.80;;;9.38;;
41233;SDS011;26968;42.686;23.352;2023-08-20T04:50:33;15.73;;;8.70;;
41233;SDS011;26968;42.686;23.352;2023-08-20T04:52:59;19.08;;;9.02;;
41233;SDS011;26968;42.686;23.352;2023-08-20T04:55:25;17.30;;;8.80;;
41233;SDS011;26968;42.686;23.352;2023-08-20T04:57:51;15.48;;;9.35;;
41233;SDS011;26968;42.686;23.352;2023-08-20T05:00:16;18.02;;;8.32;;
41233;SDS011;26968;42.686;23.352;2023-08-20T05:02:42;18.63;;;8.73;;
41233;SDS011;26968;42.686;23.352;2023-08-20T05:05:07;16.20;;;8.82;;
41233;SDS011;26968;42.686;23.352;2023-08-20T05:07:33;17.92;;;9.95;;
41233;SDS011;26968;42.686;23.352;2023-08-20T05:09:58;22.25;;;10.10;;
41233;SDS011;26968;42.686;23.352;2023-08-20T05:12:24;17.10;;;10.52;;
41233;SDS011;26968;42.686;23.352;2023-08-20T05:14:49;16.55;;;10.48;;
41233;SDS011;26968;42.686;23.352;2023-08-20T05:17:15;20.23;;;10.70;;
41233;SDS011;26968;42.686;23.352;2023-08-20T05:19:40;23.33;;;10.82;;
41233;SDS011;26968;42.686;23.352;2023-08-20T05:22:06;24.55;;;11.63;;
41233;SDS011;26968;42.686;23.352;2023-08-20T05:24:31;22.48;;;10.82;;
41233;SDS011;26968;42.686;23.352;2023-08-20T05:27:10;19.33;;;11.02;;
41233;SDS011;26968;42.686;23.352;2023-08-20T05:29:39;16.85;;;10.23;;
41233;SDS011;26968;42.686;23.352;2023-08-20T05:32:05;20.05;;;9.75;;
41233;SDS011;26968;42.686;23.352;2023-08-20T05:34:32;26.73;;;11.13;;
41233;SDS011;26968;42.686;23.352;2023-08-20T05:36:57;25.45;;;12.10;;
41233;SDS011;26968;42.686;23.352;2023-08-20T05:39:23;21.92;;;12.05;;
41233;SDS011;26968;42.686;23.352;2023-08-20T05:41:50;19.13;;;10.48;;
41233;SDS011;26968;42.686;23.352;2023-08-20T05:44:16;28.35;;;11.52;;
41233;SDS011;26968;42.686;23.352;2023-08-20T05:46:42;18.83;;;10.68;;
41233;SDS011;26968;42.686;23.352;2023-08-20T05:49:08;30.67;;;11.30;;
41233;SDS011;26968;42.686;23.352;2023-08-20T05:51:34;22.40;;;10.95;;
41233;SDS011;26968;42.686;23.352;2023-08-20T05:53:59;18.25;;;10.85;;
41233;SDS011;26968;42.686;23.352;2023-08-20T05:56:24;23.00;;;10.65;;
41233;SDS011;26968;42.686;23.352;2023-08-20T05:58:50;19.52;;;10.57;;
41233;SDS011;26968;42.686;23.352;2023-08-20T06:01:16;26.77;;;10.55;;
41233;SDS011;26968;42.686;23.352;2023-08-20T06:03:41;20.75;;;10.27;;
41233;SDS011;26968;42.686;23.352;2023-08-20T06:06:07;20.67;;;9.85;;
41233;SDS011;26968;42.686;23.352;2023-08-20T06:08:32;16.02;;;9.35;;
41233;SDS011;26968;42.686;23.352;2023-08-20T06:10:58;28.02;;;10.77;;
41233;SDS011;26968;42.686;23.352;2023-08-20T06:13:23;22.23;;;10.68;;
41233;SDS011;26968;42.686;23.352;2023-08-20T06:15:48;21.65;;;9.85;;
41233;SDS011;26968;42.686;23.352;2023-08-20T06:18:14;20.42;;;9.70;;
41233;SDS011;26968;42.686;23.352;2023-08-20T06:20:39;15.55;;;8.85;;
41233;SDS011;26968;42.686;23.352;2023-08-20T06:23:06;14.93;;;9.27;;
41233;SDS011;26968;42.686;23.352;2023-08-20T06:25:31;19.65;;;9.27;;
41233;SDS011;26968;42.686;23.352;2023-08-20T06:27:56;17.30;;;9.43;;
41233;SDS011;26968;42.686;23.352;2023-08-20T06:30:22;14.75;;;8.48;;
41233;SDS011;26968;42.686;23.352;2023-08-20T06:32:47;22.13;;;8.32;;
41233;SDS011;26968;42.686;23.352;2023-08-20T06:35:13;17.80;;;8.35;;
41233;SDS011;26968;42.686;23.352;2023-08-20T06:37:39;21.33;;;9.27;;
41233;SDS011;26968;42.686;23.352;2023-08-20T06:40:05;14.23;;;8.13;;
41233;SDS011;26968;42.686;23.352;2023-08-20T06:42:32;17.20;;;8.15;;
41233;SDS011;26968;42.686;23.352;2023-08-20T06:44:57;15.70;;;9.05;;
41233;SDS011;26968;42.686;23.352;2023-08-20T06:47:22;16.83;;;8.52;;
41233;SDS011;26968;42.686;23.352;2023-08-20T06:49:49;24.27;;;9.00;;
41233;SDS011;26968;42.686;23.352;2023-08-20T06:52:15;14.75;;;9.00;;
41233;SDS011;26968;42.686;23.352;2023-08-20T06:54:40;14.48;;;7.85;;
41233;SDS011;26968;42.686;23.352;2023-08-20T06:57:06;13.82;;;8.18;;
41233;SDS011;26968;42.686;23.352;2023-08-20T06:59:31;15.73;;;8.98;;
41233;SDS011;26968;42.686;23.352;2023-08-20T07:01:57;19.27;;;9.10;;
41233;SDS011;26968;42.686;23.352;2023-08-20T07:04:22;13.50;;;8.95;;
41233;SDS011;26968;42.686;23.352;2023-08-20T07:06:47;13.95;;;8.75;;
41233;SDS011;26968;42.686;23.352;2023-08-20T07:09:13;12.80;;;8.82;;
41233;SDS011;26968;42.686;23.352;2023-08-20T07:11:38;19.92;;;9.88;;
41233;SDS011;26968;42.686;23.352;2023-08-20T07:14:04;17.58;;;8.82;;
41233;SDS011;26968;42.686;23.352;2023-08-20T07:16:31;18.50;;;8.80;;
41233;SDS011;26968;42.686;23.352;2023-08-20T07:18:56;15.70;;;8.55;;
41233;SDS011;26968;42.686;23.352;2023-08-20T07:21:22;14.55;;;8.18;;
41233;SDS011;26968;42.686;23.352;2023-08-20T07:23:47;15.13;;;8.55;;
41233;SDS011;26968;42.686;23.352;2023-08-20T07:26:13;13.20;;;7.15;;
41233;SDS011;26968;42.686;23.352;2023-08-20T07:28:40;12.25;;;6.78;;
41233;SDS011;26968;42.686;23.352;2023-08-20T07:31:25;9.38;;;6.70;;
41233;SDS011;26968;42.686;23.352;2023-08-20T07:33:55;11.53;;;7.33;;
41233;SDS011;26968;42.686;23.352;2023-08-20T07:36:21;13.63;;;7.95;;
41233;SDS011;26968;42.686;23.352;2023-08-20T07:38:48;12.60;;;7.15;;
41233;SDS011;26968;42.686;23.352;2023-08-20T07:41:14;10.95;;;6.22;;
41233;SDS011;26968;42.686;23.352;2023-08-20T07:43:40;14.60;;;7.20;;
41233;SDS011;26968;42.686;23.352;2023-08-20T07:46:06;13.95;;;6.70;;
41233;SDS011;26968;42.686;23.352;2023-08-20T07:48:36;12.48;;;6.45;;
41233;SDS011;26968;42.686;23.352;2023-08-20T07:51:03;11.35;;;6.50;;
41233;SDS011;26968;42.686;23.352;2023-08-20T07:53:29;10.75;;;6.13;;
41233;SDS011;26968;42.686;23.352;2023-08-20T07:55:55;8.85;;;5.70;;
41233;SDS011;26968;42.686;23.352;2023-08-20T07:58:21;8.70;;;6.30;;
41233;SDS011;26968;42.686;23.352;2023-08-20T08:00:47;10.60;;;6.28;;
41233;SDS011;26968;42.686;23.352;2023-08-20T08:03:12;10.70;;;6.05;;
41233;SDS011;26968;42.686;23.352;2023-08-20T08:05:40;11.60;;;5.88;;
41233;SDS011;26968;42.686;23.352;2023-08-20T08:08:06;16.95;;;6.50;;
41233;SDS011;26968;42.686;23.352;2023-08-20T08:10:31;10.90;;;6.82;;
41233;SDS011;26968;42.686;23.352;2023-08-20T08:12:57;13.95;;;7.57;;
41233;SDS011;26968;42.686;23.352;2023-08-20T08:15:22;10.57;;;6.53;;
41233;SDS011;26968;42.686;23.352;2023-08-20T08:17:48;11.23;;;6.15;;
41233;SDS011;26968;42.686;23.352;2023-08-20T08:20:13;11.45;;;6.25;;
41233;SDS011;26968;42.686;23.352;2023-08-20T08:22:39;9.68;;;6.65;;
41233;SDS011;26968;42.686;23.352;2023-08-20T08:25:04;10.52;;;5.80;;
41233;SDS011;26968;42.686;23.352;2023-08-20T08:27:30;10.18;;;5.88;;
41233;SDS011;26968;42.686;23.352;2023-08-20T08:29:56;15.88;;;5.97;;
41233;SDS011;26968;42.686;23.352;2023-08-20T08:32:21;11.82;;;5.43;;
41233;SDS011;26968;42.686;23.352;2023-08-20T08:34:47;9.38;;;5.68;;
41233;SDS011;26968;42.686;23.352;2023-08-20T08:37:12;7.25;;;5.53;;
41233;SDS011;26968;42.686;23.352;2023-08-20T08:39:37;10.50;;;5.55;;
41233;SDS011;26968;42.686;23.352;2023-08-20T08:42:04;10.20;;;6.20;;
41233;SDS011;26968;42.686;23.352;2023-08-20T08:44:34;7.95;;;5.30;;
41233;SDS011;26968;42.686;23.352;2023-08-20T08:47:01;7.00;;;4.75;;
41233;SDS011;26968;42.686;23.352;2023-08-20T08:49:28;8.75;;;5.25;;
41233;SDS011;26968;42.686;23.352;2023-08-20T08:51:58;9.27;;;5.20;;
41233;SDS011;26968;42.686;23.352;2023-08-20T08:54:24;10.95;;;5.38;;
41233;SDS011;26968;42.686;23.352;2023-08-20T08:56:51;8.07;;;4.97;;
41233;SDS011;26968;42.686;23.352;2023-08-20T08:59:16;13.43;;;4.93;;
41233;SDS011;26968;42.686;23.352;2023-08-20T09:01:42;8.32;;;5.30;;
41233;SDS011;26968;42.686;23.352;2023-08-20T09:04:07;9.55;;;4.88;;
41233;SDS011;26968;42.686;23.352;2023-08-20T09:06:46;8.77;;;4.95;;
41233;SDS011;26968;42.686;23.352;2023-08-20T09:09:13;7.28;;;5.15;;
41233;SDS011;26968;42.686;23.352;2023-08-20T09:11:38;6.82;;;4.30;;
41233;SDS011;26968;42.686;23.352;2023-08-20T09:14:04;10.10;;;4.80;;
41233;SDS011;26968;42.686;23.352;2023-08-20T09:16:30;7.50;;;4.57;;
41233;SDS011;26968;42.686;23.352;2023-08-20T09:18:57;12.25;;;4.88;;
41233;SDS011;26968;42.686;23.352;2023-08-20T09:21:26;8.05;;;4.50;;
41233;SDS011;26968;42.686;23.352;2023-08-20T09:23:58;10.73;;;4.70;;
41233;SDS011;26968;42.686;23.352;2023-08-20T09:26:27;15.00;;;4.32;;
41233;SDS011;26968;42.686;23.352;2023-08-20T09:28:54;8.35;;;4.63;;
41233;SDS011;26968;42.686;23.352;2023-08-20T09:31:20;7.38;;;4.07;;
41233;SDS011;26968;42.686;23.352;2023-08-20T09:34:02;6.18;;;3.88;;
41233;SDS011;26968;42.686;23.352;2023-08-20T09:36:32;7.82;;;4.30;;
41233;SDS011;26968;42.686;23.352;2023-08-20T09:38:58;7.55;;;4.43;;
41233;SDS011;26968;42.686;23.352;2023-08-20T09:41:24;8.93;;;4.75;;
41233;SDS011;26968;42.686;23.352;2023-08-20T09:43:53;6.55;;;4.50;;
41233;SDS011;26968;42.686;23.352;2023-08-20T09:46:23;7.88;;;4.13;;
41233;SDS011;26968;42.686;23.352;2023-08-20T09:48:50;8.70;;;4.13;;
41233;SDS011;26968;42.686;23.352;2023-08-20T09:51:23;7.68;;;3.42;;
41233;SDS011;26968;42.686;23.352;2023-08-20T09:53:55;5.38;;;3.78;;
41233;SDS011;26968;42.686;23.352;2023-08-20T09:56:44;4.43;;;3.42;;
41233;SDS011;26968;42.686;23.352;2023-08-20T09:59:16;7.20;;;3.58;;
41233;SDS011;26968;42.686;23.352;2023-08-20T10:01:43;4.53;;;3.22;;
41233;SDS011;26968;42.686;23.352;2023-08-20T10:04:10;5.40;;;3.03;;
41233;SDS011;26968;42.686;23.352;2023-08-20T10:06:36;5.80;;;3.30;;
41233;SDS011;26968;42.686;23.352;2023-08-20T10:09:02;5.65;;;3.00;;
41233;SDS011;26968;42.686;23.352;2023-08-20T10:11:28;5.63;;;3.42;;
41233;SDS011;26968;42.686;23.352;2023-08-20T10:13:53;5.20;;;2.92;;
41233;SDS011;26968;42.686;23.352;2023-08-20T10:16:19;4.13;;;2.83;;
41233;SDS011;26968;42.686;23.352;2023-08-20T10:18:47;9.05;;;3.00;;
41233;SDS011;26968;42.686;23.352;2023-08-20T10:21:12;4.63;;;2.80;;
41233;SDS011;26968;42.686;23.352;2023-08-20T10:23:41;4.20;;;3.10;;
41233;SDS011;26968;42.686;23.352;2023-08-20T10:26:10;4.75;;;3.10;;
41233;SDS011;26968;42.686;23.352;2023-08-20T10:28:36;6.00;;;2.72;;
41233;SDS011;26968;42.686;23.352;2023-08-20T10:31:05;8.50;;;3.00;;
41233;SDS011;26968;42.686;23.352;2023-08-20T10:33:33;7.28;;;3.10;;
41233;SDS011;26968;42.686;23.352;2023-08-20T10:36:20;6.50;;;2.97;;
41233;SDS011;26968;42.686;23.352;2023-08-20T10:38:54;6.80;;;2.85;;
41233;SDS011;26968;42.686;23.352;2023-08-20T10:41:28;4.05;;;2.75;;
41233;SDS011;26968;42.686;23.352;2023-08-20T10:43:57;3.58;;;2.65;;
41233;SDS011;26968;42.686;23.352;2023-08-20T10:46:24;10.27;;;2.97;;
41233;SDS011;26968;42.686;23.352;2023-08-20T10:51:18;4.93;;;2.50;;
41233;SDS011;26968;42.686;23.352;2023-08-20T10:54:09;5.30;;;2.97;;
41233;SDS011;26968;42.686;23.352;2023-08-20T11:01:46;4.88;;;3.20;;
41233;SDS011;26968;42.686;23.352;2023-08-20T11:06:40;9.80;;;3.28;;
41233;SDS011;26968;42.686;23.352;2023-08-20T11:09:06;5.05;;;2.50;;
41233;SDS011;26968;42.686;23.352;2023-08-20T11:11:31;6.55;;;2.92;;
41233;SDS011;26968;42.686;23.352;2023-08-20T11:14:04;6.35;;;3.10;;
41233;SDS011;26968;42.686;23.352;2023-08-20T11:16:32;3.90;;;2.50;;
41233;SDS011;26968;42.686;23.352;2023-08-20T11:18:58;6.45;;;3.20;;
41233;SDS011;26968;42.686;23.352;2023-08-20T11:21:23;5.25;;;2.50;;
41233;SDS011;26968;42.686;23.352;2023-08-20T11:23:49;7.10;;;2.95;;
41233;SDS011;26968;42.686;23.352;2023-08-20T11:26:14;5.40;;;2.65;;
41233;SDS011;26968;42.686;23.352;2023-08-20T11:28:44;11.32;;;3.33;;
41233;SDS011;26968;42.686;23.352;2023-08-20T11:31:11;5.43;;;3.28;;
41233;SDS011;26968;42.686;23.352;2023-08-20T11:33:36;5.55;;;2.65;;
41233;SDS011;26968;42.686;23.352;2023-08-20T11:36:02;7.07;;;3.15;;
41233;SDS011;26968;42.686;23.352;2023-08-20T11:38:30;6.13;;;2.45;;
41233;SDS011;26968;42.686;23.352;2023-08-20T11:40:55;8.27;;;2.90;;
41233;SDS011;26968;42.686;23.352;2023-08-20T11:43:24;6.35;;;3.30;;
41233;SDS011;26968;42.686;23.352;2023-08-20T11:45:51;5.10;;;2.97;;
41233;SDS011;26968;42.686;23.352;2023-08-20T11:48:17;12.25;;;3.97;;
41233;SDS011;26968;42.686;23.352;2023-08-20T11:50:46;4.20;;;3.10;;
41233;SDS011;26968;42.686;23.352;2023-08-20T11:53:12;10.65;;;2.92;;
41233;SDS011;26968;42.686;23.352;2023-08-20T11:55:38;6.07;;;2.97;;
41233;SDS011;26968;42.686;23.352;2023-08-20T11:58:07;3.75;;;2.90;;
41233;SDS011;26968;42.686;23.352;2023-08-20T12:00:34;6.32;;;2.80;;
41233;SDS011;26968;42.686;23.352;2023-08-20T12:03:00;6.28;;;2.83;;
41233;SDS011;26968;42.686;23.352;2023-08-20T12:05:27;4.72;;;2.70;;
41233;SDS011;26968;42.686;23.352;2023-08-20T12:10:29;4.97;;;3.20;;
41233;SDS011;26968;42.686;23.352;2023-08-20T12:12:55;6.72;;;3.28;;
41233;SDS011;26968;42.686;23.352;2023-08-20T12:15:22;6.32;;;2.60;;
41233;SDS011;26968;42.686;23.352;2023-08-20T12:17:56;4.75;;;2.47;;
41233;SDS011;26968;42.686;23.352;2023-08-20T12:20:28;6.82;;;2.90;;
41233;SDS011;26968;42.686;23.352;2023-08-20T12:25:23;4.10;;;2.88;;
41233;SDS011;26968;42.686;23.352;2023-08-20T12:27:48;7.18;;;2.90;;
41233;SDS011;26968;42.686;23.352;2023-08-20T12:30:14;7.50;;;3.22;;
41233;SDS011;26968;42.686;23.352;2023-08-20T12:32:39;7.03;;;3.33;;
41233;SDS011;26968;42.686;23.352;2023-08-20T12:35:05;7.63;;;3.45;;
41233;SDS011;26968;42.686;23.352;2023-08-20T12:37:30;8.35;;;2.97;;
41233;SDS011;26968;42.686;23.352;2023-08-20T12:39:56;4.60;;;2.95;;
41233;SDS011;26968;42.686;23.352;2023-08-20T12:42:21;12.70;;;3.60;;
41233;SDS011;26968;42.686;23.352;2023-08-20T12:44:46;7.25;;;3.00;;
41233;SDS011;26968;42.686;23.352;2023-08-20T12:47:12;7.25;;;2.70;;
41233;SDS011;26968;42.686;23.352;2023-08-20T12:49:37;5.82;;;2.60;;
41233;SDS011;26968;42.686;23.352;2023-08-20T12:52:03;7.05;;;2.72;;
41233;SDS011;26968;42.686;23.352;2023-08-20T12:54:28;5.60;;;2.90;;
41233;SDS011;26968;42.686;23.352;2023-08-20T12:56:54;6.30;;;2.85;;
41233;SDS011;26968;42.686;23.352;2023-08-20T12:59:20;6.38;;;2.90;;
41233;SDS011;26968;42.686;23.352;2023-08-20T13:01:45;5.90;;;2.90;;
41233;SDS011;26968;42.686;23.352;2023-08-20T13:04:12;5.00;;;2.70;;
41233;SDS011;26968;42.686;23.352;2023-08-20T13:06:38;5.45;;;2.65;;
41233;SDS011;26968;42.686;23.352;2023-08-20T13:09:04;7.07;;;2.58;;
41233;SDS011;26968;42.686;23.352;2023-08-20T13:11:32;10.43;;;2.90;;
41233;SDS011;26968;42.686;23.352;2023-08-20T13:13:58;4.85;;;3.00;;
41233;SDS011;26968;42.686;23.352;2023-08-20T13:16:23;5.97;;;2.90;;
41233;SDS011;26968;42.686;23.352;2023-08-20T13:18:49;8.63;;;2.92;;
41233;SDS011;26968;42.686;23.352;2023-08-20T13:21:15;7.55;;;3.15;;
41233;SDS011;26968;42.686;23.352;2023-08-20T13:23:40;5.05;;;2.92;;
41233;SDS011;26968;42.686;23.352;2023-08-20T13:26:06;4.85;;;2.75;;
41233;SDS011;26968;42.686;23.352;2023-08-20T13:28:32;4.88;;;2.90;;
41233;SDS011;26968;42.686;23.352;2023-08-20T13:30:57;5.60;;;3.00;;
41233;SDS011;26968;42.686;23.352;2023-08-20T13:33:23;3.92;;;2.85;;
41233;SDS011;26968;42.686;23.352;2023-08-20T13:35:48;5.85;;;3.08;;
41233;SDS011;26968;42.686;23.352;2023-08-20T13:38:14;3.78;;;2.75;;
41233;SDS011;26968;42.686;23.352;2023-08-20T13:40:39;5.35;;;2.90;;
41233;SDS011;26968;42.686;23.352;2023-08-20T13:43:04;7.95;;;2.72;;
41233;SDS011;26968;42.686;23.352;2023-08-20T13:45:31;9.10;;;2.60;;
41233;SDS011;26968;42.686;23.352;2023-08-20T13:47:57;8.38;;;2.97;;
41233;SDS011;26968;42.686;23.352;2023-08-20T13:50:23;5.75;;;2.72;;
41233;SDS011;26968;42.686;23.352;2023-08-20T13:52:48;5.88;;;3.00;;
41233;SDS011;26968;42.686;23.352;2023-08-20T13:55:14;6.97;;;2.88;;
41233;SDS011;26968;42.686;23.352;2023-08-20T13:57:40;2.90;;;2.60;;
41233;SDS011;26968;42.686;23.352;2023-08-20T14:00:06;5.68;;;3.00;;
41233;SDS011;26968;42.686;23.352;2023-08-20T14:02:37;6.15;;;2.88;;
41233;SDS011;26968;42.686;23.352;2023-08-20T14:05:03;6.78;;;3.08;;
41233;SDS011;26968;42.686;23.352;2023-08-20T14:07:29;5.68;;;2.78;;
41233;SDS011;26968;42.686;23.352;2023-08-20T14:09:55;9.45;;;3.58;;
41233;SDS011;26968;42.686;23.352;2023-08-20T14:12:21;4.05;;;2.83;;
41233;SDS011;26968;42.686;23.352;2023-08-20T14:14:46;8.30;;;2.63;;
41233;SDS011;26968;42.686;23.352;2023-08-20T14:17:12;7.15;;;2.63;;
41233;SDS011;26968;42.686;23.352;2023-08-20T14:19:37;7.45;;;2.95;;
41233;SDS011;26968;42.686;23.352;2023-08-20T14:22:03;7.47;;;2.65;;
41233;SDS011;26968;42.686;23.352;2023-08-20T14:24:28;2.75;;;2.10;;
41233;SDS011;26968;42.686;23.352;2023-08-20T14:26:54;5.10;;;2.90;;
41233;SDS011;26968;42.686;23.352;2023-08-20T14:29:19;6.80;;;2.70;;
41233;SDS011;26968;42.686;23.352;2023-08-20T14:31:45;6.03;;;2.72;;
41233;SDS011;26968;42.686;23.352;2023-08-20T14:34:10;4.18;;;2.70;;
41233;SDS011;26968;42.686;23.352;2023-08-20T14:36:36;4.45;;;2.67;;
41233;SDS011;26968;42.686;23.352;2023-08-20T14:39:01;3.53;;;2.60;;